IGO9204 VECC-VEIM
Flight info
| Callsign | IGO9204 |
|---|---|
| Flight time | N/A |
| Altitude | 35000 |
| Route | NOKAT2E NOKAT B593 CML DCT POREG |
| Aircraft | A320/M-SDE3FGHIRWY/LB1 |
Departure
| Time | 2026-04-27 15:54 |
|---|---|
| Airport | Netaji Subhash Chandra Bose International Airport (VECC) |
Arrival
| Time | N/A |
|---|---|
| Airport | Bir Tikendrajit International Airport (VEIM) |
| Time | Latitude | Longitude | Altitude | Speed | Heading |
|---|---|---|---|---|---|
| 2026-04-27 15:27 | 22.64256 | 88.44033 | 24 ft | 0 kts | 274° |
| 2026-04-27 15:47 | 22.64255 | 88.44038 | 25 ft | 2 kts | 278° |
| 2026-04-27 15:48 | 22.64253 | 88.44065 | 24 ft | 4 kts | 268° |
| 2026-04-27 15:48 | 22.64257 | 88.44094 | 28 ft | 4 kts | 249° |
| 2026-04-27 15:48 | 22.64264 | 88.44110 | 25 ft | 0 kts | 236° |
| 2026-04-27 15:51 | 22.64258 | 88.44106 | 26 ft | 1 kts | 209° |
| 2026-04-27 15:51 | 22.64250 | 88.44123 | 24 ft | 6 kts | 118° |
| 2026-04-27 15:51 | 22.64226 | 88.44158 | 24 ft | 9 kts | 98° |
| 2026-04-27 15:51 | 22.64213 | 88.44256 | 24 ft | 14 kts | 97° |
| 2026-04-27 15:52 | 22.64178 | 88.44319 | 24 ft | 9 kts | 110° |
| 2026-04-27 15:52 | 22.64193 | 88.44392 | 26 ft | 10 kts | 66° |
| 2026-04-27 15:52 | 22.64225 | 88.44467 | 27 ft | 12 kts | 66° |
| 2026-04-27 15:52 | 22.64251 | 88.44538 | 26 ft | 0 kts | 71° |
| 2026-04-27 15:53 | 22.64252 | 88.44543 | 26 ft | 2 kts | 71° |
| 2026-04-27 15:53 | 22.64258 | 88.44562 | 27 ft | 4 kts | 71° |
| 2026-04-27 15:53 | 22.64277 | 88.44614 | 28 ft | 11 kts | 60° |
| 2026-04-27 15:53 | 22.64334 | 88.44642 | 27 ft | 1 kts | 5° |
| 2026-04-27 15:54 | 22.64421 | 88.44652 | 24 ft | 46 kts | 6° |
| 2026-04-27 15:54 | 22.65066 | 88.44730 | 22 ft | 135 kts | 6° |
| 2026-04-27 15:54 | 22.66225 | 88.44874 | 41 ft | 197 kts | 10° |
| 2026-04-27 15:54 | 22.67633 | 88.45084 | 634 ft | 214 kts | 12° |
| 2026-04-27 15:55 | 22.68855 | 88.45289 | 1395 ft | 215 kts | 14° |
| 2026-04-27 15:55 | 22.69788 | 88.45765 | 1832 ft | 229 kts | 41° |
| 2026-04-27 15:55 | 22.70880 | 88.47821 | 2599 ft | 254 kts | 75° |
| 2026-04-27 15:55 | 22.71348 | 88.49810 | 2755 ft | 297 kts | 84° |
| 2026-04-27 15:56 | 22.71494 | 88.51011 | 2679 ft | 313 kts | 89° |